createdAt,value
2023-05-06T00:01:39.153Z,12.15
2023-05-06T00:04:07.331Z,12.20
2023-05-06T00:06:35.974Z,12.21
2023-05-06T00:09:04.501Z,12.11
2023-05-06T00:11:32.639Z,12.05
2023-05-06T00:14:00.722Z,12.04
2023-05-06T00:16:28.819Z,12.07
2023-05-06T00:18:57.342Z,12.05
2023-05-06T00:21:27.353Z,12.03
2023-05-06T00:23:55.731Z,12.09
2023-05-06T00:26:23.829Z,12.14
2023-05-06T00:28:51.905Z,12.08
2023-05-06T00:31:20.272Z,12.22
2023-05-06T00:33:48.571Z,12.34
2023-05-06T00:36:16.809Z,12.42
2023-05-06T00:38:44.894Z,12.45
2023-05-06T00:41:13.312Z,12.45
2023-05-06T00:43:42.052Z,12.48
2023-05-06T00:46:11.886Z,12.47
2023-05-06T00:48:41.001Z,12.38
2023-05-06T00:51:09.480Z,12.27
2023-05-06T00:53:37.799Z,12.15
2023-05-06T00:56:06.583Z,12.06
2023-05-06T00:58:35.398Z,11.92
2023-05-06T01:01:03.595Z,11.90
2023-05-06T01:03:31.926Z,11.95
2023-05-06T01:06:30.548Z,12.04
2023-05-06T01:09:11.608Z,12.14
2023-05-06T01:11:50.932Z,12.30
2023-05-06T01:14:22.069Z,12.35
2023-05-06T01:16:56.221Z,12.39
2023-05-06T01:19:53.590Z,12.45
2023-05-06T01:22:23.591Z,12.62
2023-05-06T01:24:51.701Z,12.80
2023-05-06T01:27:22.009Z,12.84
2023-05-06T01:29:50.257Z,12.75
2023-05-06T01:32:42.070Z,12.75
2023-05-06T01:35:34.184Z,12.79
2023-05-06T01:38:14.772Z,12.74
2023-05-06T01:40:46.958Z,12.54
2023-05-06T01:43:17.137Z,12.26
2023-05-06T01:45:53.230Z,12.07
2023-05-06T01:48:26.003Z,12.07
2023-05-06T01:50:54.122Z,12.03
2023-05-06T01:53:22.530Z,12.08
2023-05-06T01:55:50.703Z,12.19
2023-05-06T01:58:18.740Z,12.34
2023-05-06T02:00:47.023Z,12.24
2023-05-06T02:03:15.574Z,11.96
2023-05-06T02:05:43.904Z,11.77
2023-05-06T02:08:12.816Z,11.52
2023-05-06T02:10:41.070Z,11.59
2023-05-06T02:13:11.486Z,11.79
2023-05-06T02:15:39.880Z,11.94
2023-05-06T02:18:11.841Z,12.07
2023-05-06T02:20:40.187Z,12.07
2023-05-06T02:23:08.696Z,11.99
2023-05-06T02:25:36.862Z,11.74
2023-05-06T02:28:05.024Z,11.57
2023-05-06T02:30:34.666Z,11.58
2023-05-06T02:33:03.210Z,11.62
2023-05-06T02:35:31.497Z,11.72
2023-05-06T02:38:00.025Z,11.73
2023-05-06T02:40:28.893Z,11.71
2023-05-06T02:42:57.019Z,11.58
2023-05-06T02:45:25.360Z,11.36
2023-05-06T02:47:54.637Z,11.28
2023-05-06T02:50:22.752Z,11.31
2023-05-06T02:52:51.397Z,11.45
2023-05-06T02:55:19.656Z,11.54
2023-05-06T02:57:47.793Z,11.38
2023-05-06T03:00:16.790Z,11.36
2023-05-06T03:02:45.204Z,11.31
2023-05-06T03:05:13.572Z,11.30
2023-05-06T03:07:41.634Z,11.55
2023-05-06T03:10:10.868Z,11.73
2023-05-06T03:12:39.464Z,11.81
2023-05-06T03:15:08.470Z,11.96
2023-05-06T03:17:37.935Z,12.06
2023-05-06T03:20:08.834Z,12.19
2023-05-06T03:22:38.654Z,12.39
2023-05-06T03:25:08.032Z,12.72
2023-05-06T03:27:37.054Z,13.15
2023-05-06T03:30:11.187Z,13.60
2023-05-06T03:32:40.874Z,14.08
2023-05-06T03:35:11.841Z,14.57
2023-05-06T03:37:40.887Z,15.07
2023-05-06T03:40:10.035Z,15.45
2023-05-06T03:42:38.538Z,15.86
2023-05-06T03:45:07.931Z,16.33
2023-05-06T03:47:38.378Z,16.86
2023-05-06T03:50:08.535Z,17.33
2023-05-06T03:52:37.008Z,17.83
2023-05-06T03:55:06.630Z,18.21
2023-05-06T03:57:35.418Z,18.65
2023-05-06T04:00:04.369Z,18.84
2023-05-06T04:02:35.482Z,18.96
2023-05-06T04:05:04.708Z,19.43
2023-05-06T04:07:33.006Z,20.35
2023-05-06T04:10:01.084Z,21.28
2023-05-06T04:12:29.355Z,21.86
2023-05-06T04:14:58.343Z,22.48
2023-05-06T04:17:26.569Z,23.17
2023-05-06T04:19:55.716Z,23.70
2023-05-06T04:22:23.666Z,24.17
2023-05-06T04:24:52.164Z,24.20
2023-05-06T04:27:20.857Z,24.43
2023-05-06T04:29:48.992Z,24.88
2023-05-06T04:32:18.177Z,24.96
2023-05-06T04:34:47.447Z,25.01
2023-05-06T04:37:16.269Z,25.28
2023-05-06T04:39:52.185Z,25.20
2023-05-06T04:42:20.539Z,25.07
2023-05-06T04:44:59.538Z,25.13
2023-05-06T04:47:29.355Z,25.47
2023-05-06T04:49:57.653Z,25.67
2023-05-06T04:52:26.359Z,25.70
2023-05-06T04:54:54.824Z,25.60
2023-05-06T04:57:23.987Z,25.70
2023-05-06T04:59:52.358Z,26.03
2023-05-06T05:02:20.687Z,26.17
2023-05-06T05:04:49.179Z,26.46
2023-05-06T05:07:17.734Z,26.00
2023-05-06T05:09:45.786Z,25.76
2023-05-06T05:12:14.164Z,26.27
2023-05-06T05:14:44.627Z,26.23
2023-05-06T05:17:13.078Z,26.48
2023-05-06T05:19:41.712Z,26.93
2023-05-06T05:22:09.951Z,27.09
2023-05-06T05:24:39.052Z,27.24
2023-05-06T05:27:07.665Z,26.87
2023-05-06T05:29:36.150Z,27.24
2023-05-06T05:32:05.146Z,27.40
2023-05-06T05:34:34.920Z,27.71
2023-05-06T05:37:03.557Z,27.07
2023-05-06T05:39:32.394Z,26.19
2023-05-06T05:42:00.763Z,26.40
2023-05-06T05:44:29.668Z,26.84
2023-05-06T05:46:59.540Z,27.56
2023-05-06T05:49:27.713Z,27.27
2023-05-06T05:51:56.375Z,27.56
2023-05-06T05:54:24.762Z,28.27
2023-05-06T05:56:52.945Z,28.31
2023-05-06T05:59:21.217Z,28.55
2023-05-06T06:01:49.698Z,28.82
2023-05-06T06:04:18.134Z,29.20
2023-05-06T06:06:46.474Z,29.30
2023-05-06T06:09:14.904Z,29.39
2023-05-06T06:11:43.511Z,29.62
2023-05-06T06:14:12.312Z,29.92
2023-05-06T06:16:41.218Z,29.92
2023-05-06T06:19:09.630Z,29.93
2023-05-06T06:21:38.400Z,29.49
2023-05-06T06:24:06.981Z,29.63
2023-05-06T06:26:34.954Z,29.78
2023-05-06T06:29:03.332Z,29.69
2023-05-06T06:31:31.437Z,29.91
2023-05-06T06:33:59.577Z,30.18
2023-05-06T06:36:27.745Z,30.38
2023-05-06T06:38:55.895Z,30.53
2023-05-06T06:41:24.175Z,31.20
2023-05-06T06:43:52.270Z,31.51
2023-05-06T06:46:25.481Z,31.52
2023-05-06T06:48:53.874Z,31.30
2023-05-06T06:51:21.947Z,31.05
2023-05-06T06:53:51.733Z,30.61
2023-05-06T06:56:19.993Z,30.63
2023-05-06T06:58:48.236Z,30.54
2023-05-06T07:01:16.478Z,30.60
2023-05-06T07:03:44.633Z,30.63
2023-05-06T07:06:12.917Z,30.50
2023-05-06T07:08:41.376Z,30.70
2023-05-06T07:11:09.558Z,31.07
2023-05-06T07:13:37.809Z,31.33
2023-05-06T07:16:06.005Z,31.33
2023-05-06T07:18:34.181Z,31.17
2023-05-06T07:21:02.145Z,31.35
2023-05-06T07:23:31.909Z,31.23
2023-05-06T07:26:00.449Z,30.91
2023-05-06T07:28:28.621Z,30.91
2023-05-06T07:30:56.720Z,31.14
2023-05-06T07:33:25.062Z,30.97
2023-05-06T07:35:54.884Z,30.57
2023-05-06T07:38:23.173Z,30.67
2023-05-06T07:40:52.036Z,30.60
2023-05-06T07:43:22.060Z,30.58
2023-05-06T07:45:50.650Z,30.61
2023-05-06T07:48:20.112Z,30.53
2023-05-06T07:50:49.121Z,29.08
2023-05-06T07:53:17.230Z,27.09
2023-05-06T07:55:45.384Z,26.48
2023-05-06T07:58:13.659Z,24.71
2023-05-06T08:00:41.834Z,24.72
2023-05-06T08:03:10.246Z,25.42
2023-05-06T08:05:38.246Z,25.03
2023-05-06T08:08:06.309Z,25.09
2023-05-06T08:10:34.691Z,24.63
2023-05-06T08:13:03.381Z,24.37
2023-05-06T08:15:31.899Z,24.49
2023-05-06T08:18:07.063Z,23.94
2023-05-06T08:20:42.503Z,24.51
2023-05-06T08:23:10.892Z,23.79
2023-05-06T08:25:39.150Z,24.47
2023-05-06T08:28:07.192Z,24.37
2023-05-06T08:30:35.583Z,24.81
2023-05-06T08:33:04.130Z,24.95
2023-05-06T08:35:32.205Z,25.07
2023-05-06T08:38:00.277Z,24.71
2023-05-06T08:40:32.709Z,25.21
2023-05-06T08:43:04.150Z,25.58
2023-05-06T08:45:33.119Z,24.74
2023-05-06T08:48:01.550Z,25.14
2023-05-06T08:50:29.997Z,25.48
2023-05-06T08:52:58.358Z,25.55
2023-05-06T08:55:26.922Z,25.66
2023-05-06T08:57:54.874Z,25.60
2023-05-06T09:00:23.084Z,24.75
2023-05-06T09:02:51.291Z,25.12
2023-05-06T09:05:19.521Z,24.96
2023-05-06T09:07:47.608Z,25.15
2023-05-06T09:10:17.952Z,25.64
2023-05-06T09:12:46.214Z,25.71
2023-05-06T09:15:14.337Z,25.47
2023-05-06T09:17:42.759Z,25.08
2023-05-06T09:20:12.220Z,24.78
2023-05-06T09:22:41.082Z,24.82
2023-05-06T09:25:12.113Z,25.05
2023-05-06T09:27:40.481Z,25.92
2023-05-06T09:30:14.630Z,26.01
2023-05-06T09:32:44.134Z,25.93
2023-05-06T09:35:12.697Z,25.70
2023-05-06T09:37:41.788Z,25.50
2023-05-06T09:40:10.368Z,25.02
2023-05-06T09:42:39.064Z,24.44
2023-05-06T09:45:08.976Z,24.50
2023-05-06T09:47:38.470Z,24.46
2023-05-06T09:50:09.421Z,25.03
2023-05-06T09:52:37.780Z,24.74
2023-05-06T09:55:07.779Z,24.56
2023-05-06T09:57:37.809Z,24.43
2023-05-06T10:00:09.319Z,24.20
2023-05-06T10:02:45.734Z,24.40
2023-05-06T10:05:14.814Z,23.55
2023-05-06T10:07:43.750Z,23.60
2023-05-06T10:10:12.235Z,23.61
2023-05-06T10:12:40.571Z,23.62
2023-05-06T10:15:09.675Z,23.86
2023-05-06T10:17:40.880Z,24.61
2023-05-06T10:20:13.776Z,24.97
2023-05-06T10:23:16.745Z,25.34
2023-05-06T10:25:46.892Z,24.77
2023-05-06T10:28:26.415Z,25.10
2023-05-06T10:31:00.202Z,25.30
2023-05-06T10:33:28.673Z,25.19
2023-05-06T10:36:20.301Z,25.01
2023-05-06T10:39:00.204Z,24.68
2023-05-06T10:41:30.458Z,25.23
2023-05-06T10:44:00.102Z,25.08
2023-05-06T10:46:30.863Z,24.69
2023-05-06T10:49:06.105Z,24.75
2023-05-06T10:51:43.910Z,25.32
2023-05-06T10:54:23.056Z,26.08
2023-05-06T10:56:51.311Z,26.59
2023-05-06T10:59:24.684Z,26.12
2023-05-06T11:01:57.234Z,25.06
2023-05-06T11:04:25.981Z,24.43
2023-05-06T11:06:54.259Z,24.43
2023-05-06T11:09:24.797Z,24.72
2023-05-06T11:11:58.389Z,25.19
2023-05-06T11:14:46.721Z,25.58
2023-05-06T11:17:35.070Z,26.03
2023-05-06T11:20:24.203Z,26.42
2023-05-06T11:22:53.483Z,26.18
2023-05-06T11:25:41.688Z,25.64
2023-05-06T11:28:16.237Z,25.31
2023-05-06T11:30:54.610Z,25.31
2023-05-06T11:33:26.166Z,25.35
2023-05-06T11:35:54.442Z,25.39
2023-05-06T11:38:22.574Z,25.69
2023-05-06T11:40:50.781Z,26.20
2023-05-06T11:43:18.957Z,26.13
2023-05-06T11:45:50.102Z,25.43
2023-05-06T11:48:18.826Z,25.30
2023-05-06T11:50:47.793Z,25.26
2023-05-06T11:53:21.297Z,25.43
2023-05-06T11:55:52.886Z,25.85
2023-05-06T11:58:30.492Z,26.17
2023-05-06T12:01:01.191Z,26.06
2023-05-06T12:03:31.985Z,26.06
2023-05-06T12:06:01.413Z,26.14
2023-05-06T12:08:34.737Z,26.15
2023-05-06T12:11:05.830Z,25.95
2023-05-06T12:13:36.856Z,25.89
2023-05-06T12:16:08.107Z,25.91
2023-05-06T12:18:36.868Z,25.97
2023-05-06T12:21:06.223Z,26.00
2023-05-06T12:23:34.291Z,26.03
2023-05-06T12:26:05.869Z,25.70
2023-05-06T12:28:36.525Z,25.33
2023-05-06T12:31:24.445Z,24.79
2023-05-06T12:33:53.048Z,24.83
2023-05-06T12:36:22.487Z,25.34
2023-05-06T12:38:55.616Z,25.75
2023-05-06T12:41:35.397Z,25.56
2023-05-06T12:44:04.698Z,25.55
2023-05-06T12:46:32.909Z,25.32
2023-05-06T12:49:02.500Z,24.36
2023-05-06T12:51:33.527Z,24.26
2023-05-06T12:54:01.570Z,24.15
2023-05-06T12:56:30.002Z,24.28
2023-05-06T12:59:02.484Z,24.17
2023-05-06T13:01:31.855Z,24.34
2023-05-06T13:04:00.182Z,24.70
2023-05-06T13:06:28.442Z,25.10
2023-05-06T13:08:56.703Z,25.50
2023-05-06T13:11:25.854Z,25.84
2023-05-06T13:13:54.089Z,25.65
2023-05-06T13:16:22.261Z,24.73
2023-05-06T13:18:50.590Z,24.50
2023-05-06T13:21:18.802Z,24.36
2023-05-06T13:23:48.088Z,24.42
2023-05-06T13:26:17.443Z,24.52
2023-05-06T13:28:46.086Z,24.54
2023-05-06T13:31:14.203Z,24.38
2023-05-06T13:33:42.601Z,23.79
2023-05-06T13:36:10.736Z,23.85
2023-05-06T13:38:39.399Z,23.87
2023-05-06T13:41:07.617Z,23.57
2023-05-06T13:43:35.838Z,23.47
2023-05-06T13:46:04.101Z,23.64
2023-05-06T13:48:32.290Z,23.80
2023-05-06T13:51:00.484Z,23.95
2023-05-06T13:53:28.530Z,24.13
2023-05-06T13:55:56.895Z,24.06
2023-05-06T13:58:25.191Z,23.93
2023-05-06T14:00:53.450Z,23.95
2023-05-06T14:03:21.641Z,23.91
2023-05-06T14:05:49.987Z,23.80
2023-05-06T14:08:18.194Z,23.76
2023-05-06T14:10:46.805Z,23.84
2023-05-06T14:13:15.137Z,23.90
2023-05-06T14:15:44.456Z,23.92
2023-05-06T14:18:12.800Z,23.91
2023-05-06T14:20:41.823Z,23.93
2023-05-06T14:23:10.120Z,23.93
2023-05-06T14:25:38.685Z,23.92
2023-05-06T14:28:07.611Z,23.74
2023-05-06T14:30:35.873Z,23.60
2023-05-06T14:33:04.045Z,23.57
2023-05-06T14:35:32.727Z,23.54
2023-05-06T14:38:01.289Z,23.51
2023-05-06T14:40:29.674Z,23.45
2023-05-06T14:42:57.944Z,23.30
2023-05-06T14:45:26.075Z,23.07
2023-05-06T14:47:54.451Z,23.01
2023-05-06T14:50:22.782Z,22.93
2023-05-06T14:52:51.184Z,22.91
2023-05-06T14:55:20.468Z,22.85
2023-05-06T14:57:48.834Z,22.76
2023-05-06T15:00:17.484Z,22.75
2023-05-06T15:02:46.332Z,22.65
2023-05-06T15:05:14.747Z,22.60
2023-05-06T15:07:43.384Z,22.56
2023-05-06T15:10:11.541Z,22.45
2023-05-06T15:12:39.652Z,22.39
2023-05-06T15:15:08.774Z,22.34
2023-05-06T15:17:37.727Z,22.25
2023-05-06T15:20:07.312Z,22.20
2023-05-06T15:22:37.206Z,22.12
2023-05-06T15:25:09.448Z,21.99
2023-05-06T15:27:40.533Z,21.88
2023-05-06T15:30:09.149Z,21.81
2023-05-06T15:32:37.468Z,21.77
2023-05-06T15:35:06.516Z,21.69
2023-05-06T15:37:35.069Z,21.58
2023-05-06T15:40:05.293Z,21.49
2023-05-06T15:42:33.622Z,21.44
2023-05-06T15:45:01.716Z,21.39
2023-05-06T15:47:29.959Z,21.35
2023-05-06T15:49:59.629Z,21.31
2023-05-06T15:52:28.342Z,21.26
2023-05-06T15:54:59.888Z,21.24
2023-05-06T15:57:31.415Z,21.21
2023-05-06T15:59:59.621Z,21.13
2023-05-06T16:02:28.422Z,21.07
2023-05-06T16:04:57.195Z,21.03
2023-05-06T16:07:26.587Z,21.05
2023-05-06T16:09:54.646Z,21.10
2023-05-06T16:12:23.015Z,21.14
2023-05-06T16:14:51.366Z,21.22
2023-05-06T16:17:19.590Z,21.34
2023-05-06T16:19:47.607Z,21.45
2023-05-06T16:22:15.780Z,21.52
2023-05-06T16:24:44.085Z,21.54
2023-05-06T16:27:12.366Z,21.61
2023-05-06T16:29:40.756Z,21.70
2023-05-06T16:32:08.889Z,21.78
2023-05-06T16:34:38.959Z,21.79
2023-05-06T16:37:09.053Z,21.81
2023-05-06T16:39:37.104Z,21.87
2023-05-06T16:42:05.472Z,21.92
2023-05-06T16:44:33.547Z,21.97
2023-05-06T16:47:01.974Z,21.99
2023-05-06T16:49:30.432Z,21.99
2023-05-06T16:52:00.624Z,22.02
2023-05-06T16:54:29.037Z,22.02
2023-05-06T16:56:57.314Z,21.95
2023-05-06T16:59:25.689Z,21.80
2023-05-06T17:01:53.878Z,21.65
2023-05-06T17:04:24.726Z,21.49
2023-05-06T17:06:52.944Z,21.40
2023-05-06T17:09:22.753Z,21.31
2023-05-06T17:11:51.163Z,21.18
2023-05-06T17:14:20.161Z,21.05
2023-05-06T17:16:49.483Z,20.93
2023-05-06T17:19:17.730Z,20.82
2023-05-06T17:21:46.038Z,20.68
2023-05-06T17:24:14.665Z,20.54
2023-05-06T17:26:42.787Z,20.43
2023-05-06T17:29:10.871Z,20.33
2023-05-06T17:31:39.003Z,20.23
2023-05-06T17:34:07.630Z,20.15
2023-05-06T17:36:35.838Z,20.04
2023-05-06T17:39:07.747Z,19.97
2023-05-06T17:41:35.955Z,19.94
2023-05-06T17:44:04.181Z,19.93
2023-05-06T17:46:33.675Z,19.91
2023-05-06T17:49:01.972Z,19.88
2023-05-06T17:51:30.128Z,19.83
2023-05-06T17:53:58.218Z,19.78
2023-05-06T17:56:26.671Z,19.72
2023-05-06T17:58:54.831Z,19.69
2023-05-06T18:01:23.067Z,19.66
2023-05-06T18:03:51.422Z,19.64
2023-05-06T18:06:19.785Z,19.65
2023-05-06T18:08:47.955Z,19.68
2023-05-06T18:11:17.433Z,19.70
2023-05-06T18:13:45.558Z,19.72
2023-05-06T18:16:14.019Z,19.70
2023-05-06T18:18:43.062Z,19.71
2023-05-06T18:21:11.424Z,19.73
2023-05-06T18:23:39.436Z,19.77
2023-05-06T18:26:07.491Z,19.81
2023-05-06T18:28:41.439Z,19.80
2023-05-06T18:31:09.778Z,19.86
2023-05-06T18:33:38.198Z,19.88
2023-05-06T18:36:06.834Z,19.88
2023-05-06T18:38:34.946Z,19.84
2023-05-06T18:41:03.322Z,19.74
2023-05-06T18:43:31.704Z,19.73
2023-05-06T18:46:00.217Z,19.75
2023-05-06T18:48:31.006Z,19.77
2023-05-06T18:51:13.869Z,19.73
2023-05-06T18:53:42.221Z,19.64
2023-05-06T18:56:11.420Z,19.50
2023-05-06T18:58:40.285Z,19.37
2023-05-06T19:01:10.079Z,19.29
2023-05-06T19:03:38.574Z,19.23
2023-05-06T19:06:10.876Z,19.11
2023-05-06T19:08:39.241Z,19.05
2023-05-06T19:11:15.038Z,19.03
2023-05-06T19:13:44.111Z,19.02
2023-05-06T19:16:13.092Z,18.99
2023-05-06T19:18:41.875Z,18.91
2023-05-06T19:21:11.532Z,18.87
2023-05-06T19:23:39.728Z,18.76
2023-05-06T19:26:11.308Z,18.58
2023-05-06T19:28:40.499Z,18.41
2023-05-06T19:31:10.299Z,18.34
2023-05-06T19:33:39.405Z,18.26
2023-05-06T19:36:07.520Z,18.15
2023-05-06T19:38:35.690Z,18.09
2023-05-06T19:41:04.488Z,18.11
2023-05-06T19:43:32.720Z,18.15
2023-05-06T19:46:01.270Z,18.18
2023-05-06T19:48:30.193Z,18.24
2023-05-06T19:50:58.362Z,18.19
2023-05-06T19:53:26.641Z,17.99
2023-05-06T19:56:01.708Z,18.04
2023-05-06T19:58:30.136Z,18.15
2023-05-06T20:00:58.433Z,18.25
2023-05-06T20:03:26.816Z,18.32
2023-05-06T20:05:55.326Z,18.29
2023-05-06T20:08:24.490Z,18.25
2023-05-06T20:10:53.391Z,18.15
2023-05-06T20:13:21.645Z,18.06
2023-05-06T20:15:50.615Z,17.95
2023-05-06T20:18:19.203Z,17.84
2023-05-06T20:20:47.343Z,17.65
2023-05-06T20:23:15.576Z,17.60
2023-05-06T20:25:43.852Z,17.65
2023-05-06T20:28:12.128Z,17.66
2023-05-06T20:30:40.381Z,17.53
2023-05-06T20:33:09.864Z,17.39
2023-05-06T20:35:40.479Z,17.30
2023-05-06T20:38:09.537Z,17.17
2023-05-06T20:40:38.017Z,17.11
2023-05-06T20:43:06.389Z,17.10
2023-05-06T20:45:34.935Z,17.09
2023-05-06T20:48:03.423Z,17.10
2023-05-06T20:50:31.931Z,17.20
2023-05-06T20:53:00.861Z,17.32
2023-05-06T20:55:28.947Z,17.37
2023-05-06T20:57:57.219Z,17.41
2023-05-06T21:00:25.792Z,17.42
2023-05-06T21:02:54.064Z,17.31
2023-05-06T21:05:22.297Z,17.17
2023-05-06T21:07:50.375Z,17.10
2023-05-06T21:10:18.466Z,17.03
2023-05-06T21:12:47.788Z,16.97
2023-05-06T21:15:16.473Z,16.96
2023-05-06T21:17:44.878Z,16.95
2023-05-06T21:20:13.707Z,16.91
2023-05-06T21:22:41.875Z,16.78
2023-05-06T21:25:10.708Z,16.70
2023-05-06T21:27:39.143Z,16.70
2023-05-06T21:30:09.117Z,16.68
2023-05-06T21:32:37.535Z,16.69
2023-05-06T21:35:06.722Z,16.69
2023-05-06T21:37:36.123Z,16.60
2023-05-06T21:40:05.025Z,16.52
2023-05-06T21:42:33.206Z,16.39
2023-05-06T21:45:01.281Z,16.32
2023-05-06T21:47:29.334Z,16.24
2023-05-06T21:49:57.540Z,16.17
2023-05-06T21:52:25.692Z,16.12
2023-05-06T21:54:54.782Z,16.05
2023-05-06T21:57:23.160Z,15.98
2023-05-06T21:59:52.248Z,15.89
2023-05-06T22:02:20.785Z,15.90
2023-05-06T22:04:49.088Z,15.90
2023-05-06T22:07:17.413Z,15.90
2023-05-06T22:09:45.963Z,15.90
2023-05-06T22:12:15.639Z,15.92
2023-05-06T22:14:43.949Z,15.93
2023-05-06T22:17:12.582Z,15.91
2023-05-06T22:19:41.901Z,15.94
2023-05-06T22:22:10.714Z,15.96
2023-05-06T22:24:39.641Z,15.93
2023-05-06T22:27:07.867Z,15.92
2023-05-06T22:29:36.180Z,15.84
2023-05-06T22:32:05.254Z,15.72
2023-05-06T22:34:33.492Z,15.61
2023-05-06T22:37:08.816Z,15.58
2023-05-06T22:39:37.160Z,15.57
2023-05-06T22:42:05.496Z,15.59
2023-05-06T22:44:33.584Z,15.62
2023-05-06T22:47:01.849Z,15.59
2023-05-06T22:49:30.105Z,15.52
2023-05-06T22:51:58.216Z,15.45
2023-05-06T22:54:26.434Z,15.37
2023-05-06T22:56:54.804Z,15.41
2023-05-06T22:59:22.942Z,15.41
2023-05-06T23:01:51.426Z,15.35
2023-05-06T23:04:19.670Z,15.21
2023-05-06T23:06:48.017Z,15.14
2023-05-06T23:09:16.277Z,15.15
2023-05-06T23:11:45.896Z,15.15
2023-05-06T23:14:14.030Z,15.14
2023-05-06T23:16:42.401Z,15.17
2023-05-06T23:19:10.893Z,15.18
2023-05-06T23:21:41.542Z,15.24
2023-05-06T23:24:10.219Z,15.27
2023-05-06T23:26:38.501Z,15.29
2023-05-06T23:29:06.803Z,15.23
2023-05-06T23:31:34.986Z,15.22
2023-05-06T23:34:03.483Z,15.14
2023-05-06T23:36:31.689Z,15.09
2023-05-06T23:38:59.796Z,15.09
2023-05-06T23:41:27.931Z,15.14
2023-05-06T23:43:56.212Z,15.10
2023-05-06T23:46:24.528Z,15.05
2023-05-06T23:48:52.645Z,15.04
2023-05-06T23:51:21.282Z,14.96
2023-05-06T23:53:49.490Z,14.93
2023-05-06T23:56:17.493Z,14.90
2023-05-06T23:58:45.739Z,14.87
